createdAt,value
2019-05-29T00:04:46.067Z,3.60
2019-05-29T00:08:44.528Z,2.10
2019-05-29T00:12:43.004Z,5.13
2019-05-29T00:16:43.885Z,8.10
2019-05-29T00:21:03.556Z,4.77
2019-05-29T00:25:02.083Z,2.17
2019-05-29T00:29:00.634Z,8.00
2019-05-29T00:32:59.392Z,12.27
2019-05-29T00:36:58.090Z,6.27
2019-05-29T00:40:58.766Z,2.50
2019-05-29T00:44:57.235Z,5.47
2019-05-29T00:49:01.423Z,4.30
2019-05-29T00:53:00.555Z,3.30
2019-05-29T00:56:59.041Z,4.33
2019-05-29T01:00:57.633Z,3.77
2019-05-29T01:04:56.297Z,3.40
2019-05-29T01:08:59.663Z,2.80
2019-05-29T01:13:00.919Z,8.27
2019-05-29T01:17:02.412Z,4.57
2019-05-29T01:21:01.610Z,5.00
2019-05-29T01:25:00.144Z,5.37
2019-05-29T01:29:04.766Z,7.67
2019-05-29T01:33:07.376Z,7.17
2019-05-29T01:37:05.829Z,3.87
2019-05-29T01:41:04.829Z,14.83
2019-05-29T01:45:08.057Z,7.27
2019-05-29T01:49:04.658Z,6.23
2019-05-29T01:53:10.455Z,5.40
2019-05-29T01:57:09.630Z,3.50
2019-05-29T02:01:13.721Z,7.47
2019-05-29T02:05:15.927Z,6.53
2019-05-29T02:09:17.996Z,5.27
2019-05-29T02:13:21.388Z,3.77
2019-05-29T02:17:20.270Z,4.07
2019-05-29T02:21:20.051Z,7.13
2019-05-29T02:25:22.775Z,3.13
2019-05-29T02:29:24.882Z,2.40
2019-05-29T02:33:29.113Z,3.53
2019-05-29T02:37:33.101Z,6.60
2019-05-29T02:41:32.506Z,9.60
2019-05-29T02:45:52.959Z,5.70
2019-05-29T02:49:32.571Z,5.43
2019-05-29T02:53:31.936Z,5.67
2019-05-29T02:57:32.629Z,3.50
2019-05-29T03:01:36.172Z,6.47
2019-05-29T03:05:35.745Z,7.77
2019-05-29T03:09:34.649Z,7.07
2019-05-29T03:13:33.825Z,5.30
2019-05-29T03:17:33.839Z,9.90
2019-05-29T03:21:34.587Z,3.70
2019-05-29T03:25:32.943Z,7.27
2019-05-29T03:29:31.936Z,6.93
2019-05-29T03:33:38.379Z,3.73
2019-05-29T03:37:32.463Z,8.40
2019-05-29T03:41:40.911Z,4.90
2019-05-29T03:45:38.878Z,3.87
2019-05-29T03:49:39.539Z,9.97
2019-05-29T03:53:41.764Z,5.23
2019-05-29T03:57:44.281Z,6.93
2019-05-29T04:01:45.942Z,7.70
2019-05-29T04:05:44.537Z,7.83
2019-05-29T04:09:43.064Z,5.40
2019-05-29T04:13:41.866Z,6.37
2019-05-29T04:17:41.169Z,10.37
2019-05-29T04:21:41.494Z,8.13
2019-05-29T04:25:46.282Z,5.90
2019-05-29T04:29:49.076Z,6.23
2019-05-29T04:33:55.547Z,7.50
2019-05-29T04:37:54.142Z,6.37
2019-05-29T04:41:52.880Z,6.90
2019-05-29T04:45:51.393Z,13.67
2019-05-29T04:49:49.841Z,7.27
2019-05-29T04:53:50.196Z,7.10
2019-05-29T04:57:50.979Z,5.90
2019-05-29T05:01:49.130Z,9.00
2019-05-29T05:05:49.922Z,12.63
2019-05-29T05:09:48.731Z,11.20
2019-05-29T05:13:48.554Z,9.27
2019-05-29T05:17:47.809Z,12.07
2019-05-29T05:21:50.801Z,10.00
2019-05-29T05:25:49.049Z,8.70
2019-05-29T05:33:51.655Z,15.80
2019-05-29T05:37:50.115Z,11.50
2019-05-29T05:41:48.650Z,14.77
2019-05-29T05:45:47.186Z,14.60
2019-05-29T05:49:50.230Z,11.77
2019-05-29T05:53:48.734Z,14.77
2019-05-29T05:58:15.171Z,13.27
2019-05-29T06:02:13.605Z,13.00
2019-05-29T06:06:12.293Z,10.00
2019-05-29T06:10:11.116Z,6.00
2019-05-29T06:14:09.587Z,17.50
2019-05-29T06:18:20.957Z,21.03
2019-05-29T06:22:11.809Z,6.30
2019-05-29T06:26:10.298Z,13.13
2019-05-29T06:30:09.768Z,9.87
2019-05-29T06:34:13.340Z,6.47
2019-05-29T06:38:14.376Z,12.60
2019-05-29T06:42:33.512Z,8.77
2019-05-29T06:46:32.250Z,9.90
2019-05-29T06:50:33.243Z,5.27
2019-05-29T06:54:33.895Z,8.37
2019-05-29T06:58:35.799Z,5.87
2019-05-29T07:02:34.643Z,7.03
2019-05-29T07:06:33.110Z,5.37
2019-05-29T07:10:42.646Z,8.73
2019-05-29T07:14:40.238Z,6.03
2019-05-29T07:18:41.202Z,5.73
2019-05-29T07:22:40.900Z,6.47
2019-05-29T07:26:51.670Z,2.87
2019-05-29T07:31:02.653Z,5.37
2019-05-29T07:35:13.282Z,6.43
2019-05-29T07:39:08.621Z,4.07
2019-05-29T07:43:10.577Z,2.83
2019-05-29T07:47:10.049Z,5.20
2019-05-29T07:51:21.937Z,4.77
2019-05-29T07:55:39.000Z,2.47
2019-05-29T07:59:30.830Z,5.13
2019-05-29T08:03:32.868Z,2.10
2019-05-29T08:07:33.961Z,7.27
2019-05-29T08:11:39.394Z,4.33
2019-05-29T08:15:52.106Z,2.70
2019-05-29T08:19:37.075Z,1.70
2019-05-29T08:23:35.615Z,4.23
2019-05-29T08:27:34.429Z,2.27
2019-05-29T08:31:39.115Z,9.20
2019-05-29T08:35:57.212Z,3.70
2019-05-29T08:39:45.876Z,1.73
2019-05-29T08:43:48.371Z,1.60
2019-05-29T08:47:47.733Z,3.50
2019-05-29T08:51:46.354Z,2.03
2019-05-29T08:55:46.113Z,3.93
2019-05-29T08:59:48.738Z,3.07
2019-05-29T09:04:20.519Z,8.03
2019-05-29T09:08:14.067Z,4.87
2019-05-29T09:12:13.142Z,1.63
2019-05-29T09:16:18.632Z,3.67
2019-05-29T09:20:34.153Z,4.37
2019-05-29T09:24:20.942Z,6.40
2019-05-29T09:28:31.847Z,4.60
2019-05-29T09:32:48.316Z,4.73
2019-05-29T09:36:35.321Z,4.00
2019-05-29T09:40:41.050Z,4.23
2019-05-29T09:44:48.546Z,3.23
2019-05-29T09:49:05.304Z,2.63
2019-05-29T09:53:06.641Z,3.47
2019-05-29T09:57:14.606Z,1.10
2019-05-29T10:01:23.855Z,2.43
2019-05-29T10:05:20.185Z,2.80
2019-05-29T10:09:23.726Z,5.37
2019-05-29T10:13:22.386Z,3.53
2019-05-29T10:17:20.920Z,6.17
2019-05-29T10:21:39.084Z,2.73
2019-05-29T10:25:25.228Z,2.90
2019-05-29T10:29:26.223Z,6.17
2019-05-29T10:33:27.827Z,2.53
2019-05-29T10:37:26.293Z,6.17
2019-05-29T10:41:32.991Z,3.33
2019-05-29T10:45:33.680Z,2.70
2019-05-29T10:49:35.116Z,2.00
2019-05-29T10:53:37.113Z,2.40
2019-05-29T10:57:44.614Z,3.07
2019-05-29T11:01:41.875Z,2.80
2019-05-29T11:05:49.555Z,4.60
2019-05-29T11:09:48.551Z,1.47
2019-05-29T11:13:48.533Z,3.83
2019-05-29T11:17:58.990Z,4.23
2019-05-29T11:22:24.801Z,1.73
2019-05-29T11:26:06.278Z,2.40
2019-05-29T11:30:13.588Z,1.87
2019-05-29T11:34:13.100Z,4.83
2019-05-29T11:38:11.700Z,3.13
2019-05-29T11:42:24.210Z,1.33
2019-05-29T11:46:13.702Z,1.60
2019-05-29T11:50:19.920Z,2.97
2019-05-29T11:54:20.384Z,3.20
2019-05-29T11:58:31.519Z,3.50
2019-05-29T12:02:29.278Z,3.73
2019-05-29T12:06:28.388Z,3.07
2019-05-29T12:10:26.883Z,2.27
2019-05-29T12:14:25.454Z,3.23
2019-05-29T12:18:24.814Z,3.03
2019-05-29T12:22:25.524Z,2.20
2019-05-29T12:26:31.964Z,3.23
2019-05-29T12:30:38.848Z,3.50
2019-05-29T12:34:50.835Z,3.60
2019-05-29T12:38:57.641Z,3.53
2019-05-29T12:43:05.973Z,3.27
2019-05-29T12:47:05.982Z,2.17
2019-05-29T12:51:18.574Z,2.83
2019-05-29T12:55:34.058Z,1.50
2019-05-29T12:59:40.041Z,1.40
2019-05-29T13:03:40.373Z,1.57
2019-05-29T13:07:41.289Z,3.10
2019-05-29T13:11:41.793Z,1.73
2019-05-29T13:15:56.692Z,2.93
2019-05-29T13:19:59.392Z,3.03
2019-05-29T13:24:02.287Z,2.67
2019-05-29T13:28:06.227Z,2.00
2019-05-29T13:32:07.571Z,1.30
2019-05-29T13:36:07.925Z,1.10
2019-05-29T13:40:08.518Z,2.90
2019-05-29T13:44:16.020Z,1.17
2019-05-29T13:48:18.789Z,2.70
2019-05-29T13:52:21.741Z,2.40
2019-05-29T13:56:24.328Z,1.07
2019-05-29T14:00:33.044Z,5.17
2019-05-29T14:04:25.217Z,2.87
2019-05-29T14:08:26.315Z,2.50
2019-05-29T14:12:26.709Z,1.63
2019-05-29T14:16:25.236Z,3.33
2019-05-29T14:20:23.886Z,2.70
2019-05-29T14:24:29.210Z,2.63
2019-05-29T14:28:26.166Z,2.30
2019-05-29T14:32:51.971Z,2.87
2019-05-29T14:37:04.192Z,2.13
2019-05-29T14:41:03.548Z,2.27
2019-05-29T14:45:06.118Z,1.20
2019-05-29T14:49:12.080Z,2.37
2019-05-29T14:53:11.461Z,2.00
2019-05-29T14:57:22.629Z,2.60
2019-05-29T15:01:13.378Z,3.22
2019-05-29T15:05:20.555Z,1.90
2019-05-29T15:09:20.640Z,0.98
2019-05-29T15:13:19.270Z,3.00
2019-05-29T15:17:33.265Z,1.00
2019-05-29T15:21:40.396Z,1.30
2019-05-29T15:25:36.711Z,0.80
2019-05-29T15:29:42.042Z,2.58
2019-05-29T15:33:38.036Z,1.80
2019-05-29T15:37:36.511Z,2.15
2019-05-29T15:41:41.237Z,4.55
2019-05-29T15:45:39.258Z,1.95
2019-05-29T15:49:40.613Z,2.45
2019-05-29T15:53:42.114Z,1.70
2019-05-29T15:57:40.990Z,3.00
2019-05-29T16:01:47.699Z,1.98
2019-05-29T16:06:11.814Z,1.45
2019-05-29T16:10:16.260Z,2.65
2019-05-29T16:14:12.934Z,2.20
2019-05-29T16:18:21.778Z,1.07
2019-05-29T16:22:12.240Z,0.78
2019-05-29T16:26:11.122Z,0.85
2019-05-29T16:30:11.396Z,2.40
2019-05-29T16:34:14.768Z,0.90
2019-05-29T16:38:14.255Z,0.85
2019-05-29T16:42:18.205Z,2.17
2019-05-29T16:46:42.572Z,2.72
2019-05-29T16:50:23.124Z,3.60
2019-05-29T16:54:23.933Z,0.80
2019-05-29T16:58:23.220Z,1.20
2019-05-29T17:02:23.842Z,3.85
2019-05-29T17:06:22.486Z,2.47
2019-05-29T17:10:31.505Z,0.90
2019-05-29T17:14:36.888Z,1.77
2019-05-29T17:18:35.430Z,2.05
2019-05-29T17:22:44.341Z,1.72
2019-05-29T17:27:01.033Z,1.40
2019-05-29T17:31:02.308Z,1.60
2019-05-29T17:35:02.968Z,2.80
2019-05-29T17:39:08.444Z,3.60
2019-05-29T17:43:07.753Z,2.33
2019-05-29T17:47:06.544Z,0.60
2019-05-29T17:51:05.449Z,5.30
2019-05-29T17:55:06.397Z,1.30
2019-05-29T17:59:26.299Z,1.23
2019-05-29T18:03:26.356Z,1.30
2019-05-29T18:07:30.209Z,2.30
2019-05-29T18:11:29.073Z,4.17
2019-05-29T18:15:28.542Z,1.20
2019-05-29T18:19:29.844Z,3.23
2019-05-29T18:23:35.732Z,4.87
2019-05-29T18:27:34.704Z,2.40
2019-05-29T18:31:34.137Z,2.97
2019-05-29T18:35:34.050Z,6.60
2019-05-29T18:39:34.369Z,2.83
2019-05-29T18:43:36.553Z,2.13
2019-05-29T18:47:37.983Z,3.77
2019-05-29T18:51:38.355Z,3.23
2019-05-29T18:55:49.501Z,5.97
2019-05-29T18:59:50.360Z,1.30
2019-05-29T19:03:49.303Z,1.77
2019-05-29T19:07:53.799Z,2.47
2019-05-29T19:11:54.905Z,3.07
2019-05-29T19:16:04.655Z,1.10
2019-05-29T19:20:03.624Z,2.23
2019-05-29T19:24:14.195Z,1.33
2019-05-29T19:28:13.207Z,1.63
2019-05-29T19:32:12.915Z,1.97
2019-05-29T19:36:20.351Z,3.77
2019-05-29T19:40:20.989Z,3.43
2019-05-29T19:44:24.642Z,1.83
2019-05-29T19:48:28.818Z,1.20
2019-05-29T19:52:31.269Z,4.17
2019-05-29T19:56:35.986Z,4.80
2019-05-29T20:00:36.307Z,2.40
2019-05-29T20:04:37.576Z,1.93
2019-05-29T20:09:06.503Z,3.50
2019-05-29T20:13:05.648Z,2.10
2019-05-29T20:17:06.441Z,2.60
2019-05-29T20:21:09.009Z,1.77
2019-05-29T20:25:13.851Z,3.67
2019-05-29T20:29:15.589Z,2.80
2019-05-29T20:33:15.459Z,4.73
2019-05-29T20:37:16.122Z,3.20
2019-05-29T20:41:20.398Z,2.70
2019-05-29T20:45:19.052Z,4.00
2019-05-29T20:49:18.062Z,2.67
2019-05-29T20:53:17.010Z,2.30
2019-05-29T20:57:19.288Z,2.90
2019-05-29T21:01:32.152Z,2.50
2019-05-29T21:05:32.473Z,8.97
2019-05-29T21:09:29.899Z,2.17
2019-05-29T21:13:28.866Z,2.77
2019-05-29T21:17:28.067Z,2.13
2019-05-29T21:21:27.019Z,2.33
2019-05-29T21:25:26.016Z,2.60
2019-05-29T21:29:26.937Z,2.37
2019-05-29T21:33:29.220Z,2.03
2019-05-29T21:37:28.124Z,4.17
2019-05-29T21:41:29.873Z,1.70
2019-05-29T21:45:28.450Z,4.37
2019-05-29T21:49:30.445Z,5.43
2019-05-29T21:53:29.412Z,3.43
2019-05-29T21:57:27.896Z,3.67
2019-05-29T22:01:26.720Z,1.57
2019-05-29T22:05:25.255Z,3.93
2019-05-29T22:09:24.711Z,3.33
2019-05-29T22:13:24.818Z,4.07
2019-05-29T22:17:23.363Z,5.00
2019-05-29T22:21:25.178Z,5.90
2019-05-29T22:25:24.210Z,1.97
2019-05-29T22:29:28.729Z,2.83
2019-05-29T22:33:22.979Z,4.13
2019-05-29T22:37:23.375Z,2.10
2019-05-29T22:41:22.410Z,6.23
2019-05-29T22:45:22.401Z,3.40
2019-05-29T22:49:20.882Z,3.70
2019-05-29T22:53:20.876Z,4.37
2019-05-29T22:57:20.127Z,2.80
2019-05-29T23:01:31.825Z,12.07
2019-05-29T23:05:30.386Z,3.63
2019-05-29T23:09:34.491Z,3.80
2019-05-29T23:13:32.954Z,3.67
2019-05-29T23:17:34.590Z,3.17
2019-05-29T23:21:33.118Z,6.30
2019-05-29T23:25:35.139Z,5.90
2019-05-29T23:29:48.371Z,4.20
2019-05-29T23:33:39.030Z,4.63
2019-05-29T23:37:36.846Z,5.00
2019-05-29T23:41:35.294Z,4.23
2019-05-29T23:45:36.839Z,3.20
2019-05-29T23:49:37.222Z,3.10
2019-05-29T23:53:37.907Z,6.40
2019-05-29T23:57:36.467Z,4.73
